Time;durP1;ratioP1;P1;durP2;ratioP2;P2;SDS_P1;SDS_P2;PMS_P1;PMS_P2;Temp;Humidity;BMP_temperature;BMP_pressure;BME280_temperature;BME280_humidity;BME280_pressure;Samples;Min_cycle;Max_cycle;Signal;HPM_P1;HPM_P2
2021/06/10 00:01:27;;;;;;;16.30;11.30;;;;;;;15.14;82.36;100117.13;1779538;80;21102;-76
2021/06/10 00:03:54;;;;;;;19.12;11.25;;;;;;;15.10;82.37;100115.72;1783503;80;21421;-77
2021/06/10 00:06:21;;;;;;;15.30;10.70;;;;;;;15.09;82.25;100117.50;1783737;80;21325;-78
2021/06/10 00:08:48;;;;;;;16.82;11.08;;;;;;;15.07;82.26;100121.25;1783326;80;20900;-76
2021/06/10 00:11:15;;;;;;;17.50;11.30;;;;;;;15.05;82.18;100121.86;1783981;80;20940;-76
2021/06/10 00:13:41;;;;;;;20.70;12.10;;;;;;;15.01;81.94;100122.64;1783671;80;21143;-77
2021/06/10 00:16:08;;;;;;;15.98;10.72;;;;;;;14.99;81.82;100126.38;1784486;80;21009;-77
2021/06/10 00:18:35;;;;;;;18.00;11.68;;;;;;;14.95;81.87;100128.44;1784336;80;20932;-76
2021/06/10 00:21:02;;;;;;;15.68;12.33;;;;;;;14.89;82.09;100122.36;1784384;80;21397;-77
2021/06/10 00:23:28;;;;;;;16.25;11.40;;;;;;;14.86;82.29;100122.64;1783916;80;20872;-76
2021/06/10 00:25:55;;;;;;;17.02;10.30;;;;;;;14.83;82.43;100118.92;1783871;80;21113;-76
2021/06/10 00:28:22;;;;;;;18.05;11.95;;;;;;;14.78;82.79;100119.81;1783466;80;20901;-77
2021/06/10 00:30:49;;;;;;;15.60;11.08;;;;;;;14.78;83.15;100117.17;1783651;80;20924;-76
2021/06/10 00:33:16;;;;;;;14.93;10.45;;;;;;;14.77;83.47;100115.02;1783541;80;20936;-75
2021/06/10 00:35:43;;;;;;;12.47;10.05;;;;;;;14.80;83.56;100128.44;1783638;80;21449;-75
2021/06/10 00:38:10;;;;;;;21.87;10.58;;;;;;;14.83;83.10;100126.38;1784017;80;22208;-76
2021/06/10 00:40:37;;;;;;;13.70;9.90;;;;;;;14.85;82.68;100126.23;1783406;80;20970;-75
2021/06/10 00:43:04;;;;;;;16.40;10.60;;;;;;;14.85;82.21;100131.05;1783612;80;20928;-76
2021/06/10 00:45:31;;;;;;;15.53;9.63;;;;;;;14.85;81.76;100137.65;1783720;80;20935;-76
2021/06/10 00:47:58;;;;;;;21.10;10.13;;;;;;;14.84;81.80;100133.81;1783859;80;20865;-76
2021/06/10 00:50:30;;;;;;;12.03;8.33;;;;;;;14.82;82.04;100133.10;1783596;80;21561;-77
2021/06/10 00:52:57;;;;;;;14.38;10.43;;;;;;;14.77;82.28;100132.67;1783760;80;20968;-76
2021/06/10 00:55:26;;;;;;;14.00;9.25;;;;;;;14.76;82.53;100130.98;1783585;80;20880;-76
2021/06/10 00:57:52;;;;;;;15.08;10.85;;;;;;;14.76;82.60;100133.62;1783402;80;20932;-76
2021/06/10 01:00:21;;;;;;;13.18;10.32;;;;;;;14.77;82.53;100135.31;1783596;80;20888;-76
2021/06/10 01:02:48;;;;;;;15.98;9.78;;;;;;;14.78;82.63;100132.52;1775603;80;21161;-74
2021/06/10 01:05:15;;;;;;;23.25;11.35;;;;;;;14.79;82.67;100137.34;1775231;80;21406;-76
2021/06/10 01:07:58;;;;;;;11.68;8.85;;;;;;;14.79;82.85;100135.52;1775356;80;20999;-76
2021/06/10 01:10:55;;;;;;;13.85;9.85;;;;;;;14.77;82.59;100130.86;1775557;80;21417;-76
2021/06/10 01:13:56;;;;;;;15.20;10.20;;;;;;;14.75;82.51;100135.92;1775265;80;20888;-78
2021/06/10 01:16:24;;;;;;;18.40;10.55;;;;;;;14.70;82.69;100134.50;1775656;80;21747;-77
2021/06/10 01:18:52;;;;;;;18.00;10.30;;;;;;;14.67;82.97;100132.14;1778812;80;20852;-76
2021/06/10 01:21:20;;;;;;;16.12;10.70;;;;;;;14.65;82.90;100125.30;1775562;80;20885;-76
2021/06/10 01:24:04;;;;;;;19.45;10.03;;;;;;;14.66;83.02;100127.81;1775223;80;20920;-76
2021/06/10 01:26:45;;;;;;;17.02;10.43;;;;;;;14.67;82.97;100121.58;1764232;80;21334;-77
2021/06/10 01:29:13;;;;;;;12.55;9.28;;;;;;;14.66;82.92;100130.45;1775289;80;21142;-77
2021/06/10 01:31:39;;;;;;;17.70;10.53;;;;;;;14.64;83.07;100127.59;1775479;80;20967;-77
2021/06/10 01:34:08;;;;;;;19.10;10.45;;;;;;;14.63;83.19;100129.86;1775323;80;20948;-77
2021/06/10 01:36:38;;;;;;;16.27;10.40;;;;;;;14.63;82.88;100128.08;1779177;80;21462;-76
2021/06/10 01:39:08;;;;;;;16.00;9.73;;;;;;;14.64;82.63;100128.42;1775259;80;20995;-77
2021/06/10 01:41:35;;;;;;;17.30;11.28;;;;;;;14.65;82.36;100131.89;1775693;80;21165;-76
2021/06/10 01:44:02;;;;;;;13.83;9.90;;;;;;;14.64;82.20;100128.42;1775214;80;20920;-76
2021/06/10 01:46:31;;;;;;;12.75;9.65;;;;;;;14.63;81.96;100129.86;1775333;80;20884;-76
2021/06/10 01:48:59;;;;;;;15.32;10.23;;;;;;;14.61;81.81;100133.97;1775173;80;20896;-78
2021/06/10 01:51:30;;;;;;;16.57;9.70;;;;;;;14.60;81.84;100132.77;1775330;80;20924;-76
2021/06/10 01:53:59;;;;;;;18.80;10.48;;;;;;;14.58;82.15;100132.06;1775231;80;21148;-76
2021/06/10 01:56:26;;;;;;;15.20;10.32;;;;;;;14.54;82.35;100141.17;1775560;80;20904;-77
2021/06/10 01:58:53;;;;;;;20.30;10.00;;;;;;;14.53;82.56;100138.19;1775276;80;21438;-77
2021/06/10 02:01:25;;;;;;;18.85;9.25;;;;;;;14.54;82.66;100140.70;1775267;80;20865;-76
2021/06/10 02:03:53;;;;;;;13.05;8.70;;;;;;;14.56;82.54;100142.73;1775364;80;20912;-75
2021/06/10 02:06:19;;;;;;;15.05;10.10;;;;;;;14.57;82.54;100140.47;1775540;80;21795;-75
2021/06/10 02:08:48;;;;;;;20.57;10.45;;;;;;;14.59;82.68;100137.71;1778833;80;20924;-76
2021/06/10 02:11:16;;;;;;;17.17;10.18;;;;;;;14.59;82.69;100145.14;1775375;80;20940;-76
2021/06/10 02:13:44;;;;;;;18.35;10.40;;;;;;;14.60;82.76;100143.33;1775481;80;21672;-75
2021/06/10 02:16:12;;;;;;;17.92;10.88;;;;;;;14.61;82.67;100139.25;1775199;80;20853;-75
2021/06/10 02:18:41;;;;;;;12.73;9.75;;;;;;;14.62;82.55;100142.72;1775268;80;20916;-75
2021/06/10 02:21:10;;;;;;;14.28;9.38;;;;;;;14.63;82.43;100139.09;1775161;80;20925;-76
2021/06/10 02:23:38;;;;;;;13.08;9.43;;;;;;;14.64;82.50;100138.15;1775473;80;20928;-76
2021/06/10 02:26:05;;;;;;;16.77;9.10;;;;;;;14.66;82.66;100136.22;1775142;80;20900;-75
2021/06/10 02:28:33;;;;;;;17.15;10.05;;;;;;;14.67;82.57;100142.70;1775641;80;21504;-75
2021/06/10 02:31:01;;;;;;;20.25;10.65;;;;;;;14.68;82.32;100138.25;1775258;80;21210;-76
2021/06/10 02:33:28;;;;;;;16.27;9.85;;;;;;;14.68;82.17;100136.92;1775541;80;20916;-75
2021/06/10 02:35:55;;;;;;;15.90;10.53;;;;;;;14.69;82.07;100141.22;1775242;80;20880;-76
2021/06/10 02:38:24;;;;;;;14.95;10.08;;;;;;;14.71;82.21;100143.25;1775224;80;20912;-75
2021/06/10 02:40:53;;;;;;;17.82;10.18;;;;;;;14.72;82.25;100142.30;1775179;80;20857;-76
2021/06/10 02:43:20;;;;;;;14.53;9.80;;;;;;;14.71;82.44;100144.08;1775526;80;21129;-77
2021/06/10 02:45:48;;;;;;;19.73;10.65;;;;;;;14.76;82.48;100149.45;1775212;80;20853;-77
2021/06/10 02:48:14;;;;;;;15.60;10.70;;;;;;;14.79;82.48;100146.08;1775449;80;20944;-77
2021/06/10 02:50:42;;;;;;;18.05;10.72;;;;;;;14.83;82.60;100140.04;1753687;80;20900;-78
2021/06/10 02:53:15;;;;;;;15.28;10.23;;;;;;;14.86;82.50;100139.30;1775449;80;20849;-77
2021/06/10 02:55:45;;;;;;;18.52;11.20;;;;;;;14.89;82.93;100143.48;1775388;80;21142;-77
2021/06/10 02:58:19;;;;;;;14.55;9.70;;;;;;;14.89;82.93;100143.48;1775404;80;20920;-78
2021/06/10 03:00:46;;;;;;;26.10;12.23;;;;;;;14.95;82.83;100138.17;1775256;80;20885;-77
2021/06/10 03:03:14;;;;;;;20.35;10.82;;;;;;;14.99;82.84;100134.30;1782279;80;20971;-78
2021/06/10 03:05:42;;;;;;;20.05;11.48;;;;;;;15.02;82.96;100136.67;1783409;80;20884;-77
2021/06/10 03:08:17;;;;;;;16.65;11.18;;;;;;;15.05;83.08;100145.17;1783380;80;21922;-77
2021/06/10 03:10:45;;;;;;;17.23;11.60;;;;;;;15.12;83.02;100146.80;1783333;80;20971;-77
2021/06/10 03:13:12;;;;;;;21.25;11.38;;;;;;;15.18;82.99;100155.48;1783480;80;20956;-76
2021/06/10 03:15:39;;;;;;;18.98;11.85;;;;;;;15.24;82.91;100162.06;1783625;80;20896;-76
2021/06/10 03:18:08;;;;;;;21.95;11.85;;;;;;;15.29;82.94;100161.99;1753438;80;20884;-75
2021/06/10 03:20:35;;;;;;;21.87;11.95;;;;;;;15.34;82.95;100165.58;1783377;80;21166;-75
2021/06/10 03:23:02;;;;;;;21.25;12.43;;;;;;;15.41;82.95;100171.17;1783907;80;21330;-75
2021/06/10 03:25:29;;;;;;;26.37;12.03;;;;;;;15.46;82.88;100168.95;1783938;80;20912;-76
2021/06/10 03:27:56;;;;;;;19.20;11.30;;;;;;;15.50;82.87;100167.71;1783570;80;21034;-76
2021/06/10 03:30:23;;;;;;;24.63;13.40;;;;;;;15.54;82.88;100167.80;1784124;80;20880;-76
2021/06/10 03:32:50;;;;;;;22.65;13.75;;;;;;;15.60;82.93;100168.55;1783967;80;21557;-76
2021/06/10 03:35:17;;;;;;;22.45;13.95;;;;;;;15.66;83.07;100160.58;1783466;80;20944;-76
2021/06/10 03:37:44;;;;;;;23.45;15.50;;;;;;;15.71;83.23;100162.35;1783831;80;20956;-75
2021/06/10 03:40:12;;;;;;;24.30;12.80;;;;;;;15.76;83.54;100165.41;1783899;80;20856;-78
2021/06/10 03:42:39;;;;;;;24.72;13.20;;;;;;;15.86;83.74;100163.63;1783578;80;21388;-78
2021/06/10 03:45:07;;;;;;;23.85;13.10;;;;;;;15.95;83.86;100162.80;1784012;80;21129;-78
2021/06/10 03:47:35;;;;;;;19.82;12.70;;;;;;;16.07;83.97;100162.66;1784134;80;20889;-78
2021/06/10 03:50:03;;;;;;;17.05;11.45;;;;;;;16.19;84.08;100166.03;1778687;80;20931;-78
2021/06/10 03:52:30;;;;;;;17.87;11.30;;;;;;;16.30;84.12;100165.89;1753245;80;21354;-78
2021/06/10 03:54:58;;;;;;;22.13;10.75;;;;;;;16.42;84.12;100170.53;1783898;80;20940;-77
2021/06/10 03:57:25;;;;;;;16.90;11.78;;;;;;;16.55;84.04;100164.45;1783620;80;21979;-77
2021/06/10 03:59:52;;;;;;;18.37;13.20;;;;;;;16.70;84.10;100159.56;1783748;80;20927;-77
2021/06/10 04:02:19;;;;;;;15.70;9.83;;;;;;;16.93;83.91;100164.05;1750590;81;20857;-76
2021/06/10 04:04:46;;;;;;;19.55;11.05;;;;;;;17.20;83.30;100164.06;1773405;80;21453;-76
2021/06/10 04:07:12;;;;;;;11.75;8.50;;;;;;;17.55;82.81;100163.83;1773764;81;20908;-76
2021/06/10 04:09:39;;;;;;;17.10;7.70;;;;;;;18.02;82.33;100167.66;1773599;81;21820;-77
2021/06/10 04:12:08;;;;;;;11.93;7.78;;;;;;;18.61;81.44;100172.48;1773263;81;20940;-77
2021/06/10 04:14:35;;;;;;;13.80;7.10;;;;;;;19.21;79.49;100170.38;1773403;81;20889;-78
2021/06/10 04:17:02;;;;;;;10.58;7.20;;;;;;;19.80;77.79;100173.09;1773654;80;20888;-76
2021/06/10 04:19:31;;;;;;;9.55;6.53;;;;;;;20.36;76.14;100171.98;1773499;81;20893;-75
2021/06/10 04:21:57;;;;;;;9.03;6.25;;;;;;;20.90;73.71;100173.13;1773866;80;21111;-76
2021/06/10 04:24:24;;;;;;;11.88;7.35;;;;;;;21.45;71.78;100170.11;1773264;81;20967;-78
2021/06/10 04:26:51;;;;;;;10.85;6.25;;;;;;;21.97;70.34;100174.52;1773437;80;20928;-77
2021/06/10 04:29:18;;;;;;;10.55;7.22;;;;;;;22.44;68.24;100164.98;1773438;81;20979;-79
2021/06/10 04:31:45;;;;;;;10.93;5.95;;;;;;;22.88;66.46;100166.91;1773595;81;21043;-78
2021/06/10 04:34:12;;;;;;;10.45;5.30;;;;;;;23.24;64.52;100164.84;1773303;81;21378;-78
2021/06/10 04:36:40;;;;;;;6.00;4.95;;;;;;;23.58;63.32;100166.08;1773659;81;21066;-78
2021/06/10 04:39:07;;;;;;;8.70;4.58;;;;;;;23.87;61.89;100165.20;1773405;80;20980;-79
2021/06/10 04:41:34;;;;;;;6.17;4.55;;;;;;;24.14;60.65;100167.62;1773656;80;21557;-79
2021/06/10 04:44:01;;;;;;;4.65;4.25;;;;;;;24.42;59.48;100168.19;1773500;81;20873;-78
2021/06/10 04:46:28;;;;;;;4.40;4.00;;;;;;;24.69;59.01;100169.77;1773376;81;21537;-77
2021/06/10 04:48:56;;;;;;;5.05;3.77;;;;;;;24.96;57.65;100169.42;1773328;81;20966;-76
2021/06/10 04:51:25;;;;;;;4.53;3.55;;;;;;;25.20;56.90;100174.33;1773617;81;20873;-79
2021/06/10 04:53:53;;;;;;;5.95;3.85;;;;;;;25.46;56.06;100166.59;1773358;81;20944;-79
2021/06/10 04:56:22;;;;;;;3.77;3.47;;;;;;;25.75;55.58;100166.29;1773750;81;20932;-78
2021/06/10 04:58:48;;;;;;;4.08;3.50;;;;;;;26.05;54.86;100166.78;1773335;81;21126;-79
2021/06/10 05:01:15;;;;;;;3.80;3.35;;;;;;;26.28;54.13;100163.39;1773203;80;20936;-78
2021/06/10 05:03:43;;;;;;;5.25;4.42;;;;;;;26.47;53.43;100165.26;1774845;80;20881;-77
2021/06/10 05:06:09;;;;;;;4.35;3.35;;;;;;;26.66;52.73;100165.80;1775263;80;20932;-78
2021/06/10 05:08:37;;;;;;;4.22;3.20;;;;;;;26.94;51.93;100167.39;1775298;80;21378;-79
2021/06/10 05:11:04;;;;;;;3.47;3.08;;;;;;;27.18;51.53;100159.15;1775307;80;21147;-80
2021/06/10 05:13:31;;;;;;;3.90;2.90;;;;;;;27.41;50.77;100160.53;1775157;80;20959;-80
2021/06/10 05:16:00;;;;;;;5.95;4.08;;;;;;;27.56;50.09;100156.23;1775371;80;21397;-81
2021/06/10 05:18:27;;;;;;;3.55;3.25;;;;;;;27.72;50.22;100158.94;1774581;80;20940;-78
2021/06/10 05:20:54;;;;;;;5.80;4.35;;;;;;;27.88;49.97;100153.91;1775231;80;21082;-76
2021/06/10 05:23:20;;;;;;;5.85;3.33;;;;;;;28.13;49.50;100152.29;1775533;80;21720;-79
2021/06/10 05:25:47;;;;;;;2.98;2.77;;;;;;;28.24;48.06;100162.37;1775180;80;20881;-80
2021/06/10 05:28:14;;;;;;;5.12;3.30;;;;;;;28.27;47.38;100159.22;1775606;80;20991;-80
2021/06/10 05:30:41;;;;;;;4.83;2.87;;;;;;;28.31;48.34;100158.55;1775220;80;21019;-80
2021/06/10 05:33:08;;;;;;;3.95;3.17;;;;;;;28.49;47.84;100154.29;1775287;80;20928;-77
2021/06/10 05:35:36;;;;;;;3.00;2.80;;;;;;;28.71;47.64;100152.83;1775243;80;21461;-79
2021/06/10 05:38:03;;;;;;;3.58;2.95;;;;;;;28.93;47.16;100156.45;1775554;80;20956;-79
2021/06/10 05:40:30;;;;;;;3.90;2.95;;;;;;;29.09;46.49;100150.48;1775213;80;20924;-79
2021/06/10 05:42:56;;;;;;;4.55;3.12;;;;;;;29.25;46.25;100147.69;1775433;80;20940;-78
2021/06/10 05:45:23;;;;;;;3.27;3.02;;;;;;;29.39;45.91;100145.64;1775275;80;21377;-83
2021/06/10 05:47:50;;;;;;;6.62;4.12;;;;;;;29.48;46.02;100144.80;1775802;80;21305;-82
2021/06/10 05:50:17;;;;;;;3.60;2.65;;;;;;;29.68;45.52;100141.34;1775465;80;20925;-83
2021/06/10 05:52:44;;;;;;;3.85;3.22;;;;;;;29.93;44.87;100146.59;1775808;80;21066;-85
2021/06/10 05:55:11;;;;;;;4.08;2.62;;;;;;;30.13;44.12;100144.11;1776188;80;20892;-81
2021/06/10 05:57:38;;;;;;;5.28;4.30;;;;;;;30.34;43.64;100149.50;1775391;80;20920;-83
2021/06/10 06:00:08;;;;;;;2.95;2.33;;;;;;;30.56;43.30;100145.69;1775352;80;21760;-82
2021/06/10 06:02:36;;;;;;;2.65;2.47;;;;;;;30.76;43.17;100143.97;1776807;80;20884;-87
2021/06/10 06:05:05;;;;;;;4.25;2.87;;;;;;;30.91;42.65;100145.69;1784131;80;20971;-87
2021/06/10 06:07:33;;;;;;;2.85;2.62;;;;;;;31.01;42.35;100145.08;1783946;80;20936;-90
2021/06/10 06:10:00;;;;;;;2.40;2.12;;;;;;;31.14;42.05;100148.87;1783854;80;21311;-84
2021/06/10 06:12:29;;;;;;;6.15;2.45;;;;;;;31.31;41.71;100143.53;1784366;80;20912;-89
2021/06/10 06:14:56;;;;;;;2.12;1.90;;;;;;;31.48;41.32;100140.08;1783968;80;20923;-87
2021/06/10 06:17:24;;;;;;;2.42;2.22;;;;;;;31.56;41.46;100134.27;1783654;80;21464;-87
2021/06/10 06:19:52;;;;;;;2.20;2.00;;;;;;;31.70;40.95;100133.44;1783629;80;20892;-84
2021/06/10 06:22:18;;;;;;;3.17;2.02;;;;;;;31.79;40.20;100131.46;1783513;80;20931;-85
2021/06/10 06:24:45;;;;;;;2.08;1.98;;;;;;;31.87;39.98;100134.83;1783958;80;21125;-85
2021/06/10 06:27:12;;;;;;;1.70;1.60;;;;;;;32.03;39.95;100131.33;1783700;80;21350;-85
2021/06/10 06:29:40;;;;;;;3.98;2.45;;;;;;;32.24;39.29;100131.14;1783681;80;20825;-84
2021/06/10 06:32:08;;;;;;;2.12;1.70;;;;;;;32.41;38.80;100137.89;1783917;80;20896;-86
2021/06/10 06:34:34;;;;;;;1.17;1.17;;;;;;;32.56;38.17;100134.63;1784472;80;21489;-85
2021/06/10 06:37:01;;;;;;;2.20;1.80;;;;;;;32.73;38.37;100133.25;1784312;80;21119;-83
2021/06/10 06:39:28;;;;;;;2.17;1.85;;;;;;;32.85;37.69;100128.50;1784144;80;20884;-81
2021/06/10 06:41:55;;;;;;;2.12;1.75;;;;;;;32.89;38.71;100132.91;1783778;80;20872;-83
2021/06/10 06:44:22;;;;;;;1.25;1.25;;;;;;;32.92;38.17;100128.31;1783724;80;20885;-83
2021/06/10 06:46:49;;;;;;;1.67;1.57;;;;;;;33.01;38.19;100130.88;1783691;80;21005;-82
2021/06/10 06:49:16;;;;;;;3.25;1.25;;;;;;;33.02;38.02;100127.91;1784023;80;21107;-81
2021/06/10 06:51:43;;;;;;;1.42;1.32;;;;;;;33.08;37.73;100130.17;1783464;80;20923;-80
2021/06/10 06:54:10;;;;;;;2.20;1.92;;;;;;;33.16;37.40;100127.02;1784077;80;21026;-83
2021/06/10 06:56:37;;;;;;;1.50;1.40;;;;;;;33.24;37.42;100132.55;1783961;80;21441;-82
2021/06/10 06:59:05;;;;;;;1.47;1.37;;;;;;;33.34;37.47;100135.92;1784124;80;21022;-80
2021/06/10 07:01:35;;;;;;;4.45;1.62;;;;;;;33.40;36.56;100132.19;1785255;80;21989;-81
2021/06/10 07:04:02;;;;;;;1.57;1.30;;;;;;;33.47;36.10;100136.88;1785724;80;20872;-82
2021/06/10 07:06:29;;;;;;;2.58;1.40;;;;;;;33.50;35.48;100136.90;1784394;80;20959;-82
2021/06/10 07:08:56;;;;;;;2.87;1.30;;;;;;;33.55;34.95;100137.79;1784000;80;21417;-80
2021/06/10 07:11:23;;;;;;;3.33;1.62;;;;;;;33.65;35.30;100133.83;1783891;80;20877;-79
2021/06/10 07:13:49;;;;;;;2.30;1.80;;;;;;;33.60;35.29;100137.05;1784424;80;21805;-84
2021/06/10 07:17:59;;;;;;;1.95;1.50;;;;;;;33.63;36.21;100133.80;1842392;77;22574;-84
2021/06/10 07:20:26;;;;;;;2.40;1.50;;;;;;;33.55;36.05;100135.06;1800772;79;20880;-82
2021/06/10 07:22:55;;;;;;;6.28;1.70;;;;;;;33.56;36.10;100126.36;1800868;79;21121;-82
2021/06/10 07:25:22;;;;;;;7.12;2.33;;;;;;;33.56;36.06;100124.46;1765092;81;20961;-86
2021/06/10 07:27:49;;;;;;;2.75;1.10;;;;;;;33.63;35.17;100129.18;1753578;81;20900;-85
2021/06/10 07:30:19;;;;;;;1.85;1.27;;;;;;;33.77;35.54;100128.76;1733585;81;20903;-86
2021/06/10 07:32:48;;;;;;;2.05;1.15;;;;;;;33.84;34.64;100126.13;1754176;81;20848;-84
2021/06/10 07:35:21;;;;;;;1.12;1.00;;;;;;;33.87;34.61;100132.13;1733240;81;21945;-84
2021/06/10 07:37:45;;;;;;;1.00;1.00;;;;;;;33.91;34.17;100128.63;1753151;81;20947;-84
2021/06/10 07:40:12;;;;;;;2.98;1.17;;;;;;;34.02;34.93;100126.83;1733283;82;20970;-85
2021/06/10 07:42:39;;;;;;;5.42;1.65;;;;;;;34.12;34.05;100129.64;1754251;81;20904;-84
2021/06/10 07:45:07;;;;;;;3.83;1.17;;;;;;;34.15;33.22;100129.14;1734245;81;20867;-83
2021/06/10 07:47:34;;;;;;;8.43;1.85;;;;;;;34.15;33.60;100131.86;1756779;76;21668;-91
2021/06/10 07:50:01;;;;;;;1.92;1.15;;;;;;;34.03;33.28;100131.17;1735913;79;20907;-87
2021/06/10 07:52:29;;;;;;;4.62;1.40;;;;;;;33.84;33.27;100121.23;1756187;81;20892;-85
2021/06/10 07:54:56;;;;;;;6.05;1.20;;;;;;;33.80;32.49;100126.91;1733195;81;20946;-85
2021/06/10 07:57:23;;;;;;;7.37;1.10;;;;;;;33.92;33.35;100124.00;1753532;81;21401;-86
2021/06/10 07:59:50;;;;;;;2.22;1.20;;;;;;;34.15;33.30;100116.89;1734041;81;21132;-79
2021/06/10 08:02:17;;;;;;;1.37;0.88;;;;;;;34.34;31.69;100122.72;1753378;81;20892;-78
2021/06/10 08:04:44;;;;;;;2.62;1.10;;;;;;;34.22;31.62;100120.75;1733145;81;20926;-79
2021/06/10 08:07:11;;;;;;;5.10;0.98;;;;;;;34.13;31.21;100116.84;1753638;81;20920;-79
2021/06/10 08:09:38;;;;;;;0.85;0.85;;;;;;;34.20;32.40;100120.19;1733096;81;20859;-78
2021/06/10 08:12:06;;;;;;;1.35;0.50;;;;;;;34.26;30.98;100130.00;1753476;81;21086;-80
2021/06/10 08:14:33;;;;;;;0.85;0.78;;;;;;;34.27;29.91;100120.77;1733022;82;21444;-82
2021/06/10 08:17:00;;;;;;;4.45;0.88;;;;;;;34.47;30.80;100121.45;1741895;81;20885;-79
2021/06/10 08:19:27;;;;;;;1.92;0.98;;;;;;;34.67;31.01;100117.51;1788383;79;21346;-81
2021/06/10 08:21:54;;;;;;;1.10;0.88;;;;;;;34.74;31.10;100120.54;1788780;79;21077;-80
2021/06/10 08:24:21;;;;;;;0.72;0.70;;;;;;;34.81;30.02;100111.58;1748779;82;21069;-82
2021/06/10 08:26:48;;;;;;;3.42;0.60;;;;;;;34.91;30.07;100110.79;1788454;80;20920;-81
2021/06/10 08:29:15;;;;;;;3.25;0.62;;;;;;;35.01;28.96;100104.84;1788211;79;20910;-82
2021/06/10 08:31:43;;;;;;;19.23;1.75;;;;;;;35.14;28.51;100105.47;1747917;82;20959;-78
2021/06/10 08:34:10;;;;;;;1.00;0.40;;;;;;;35.18;27.16;100112.84;1787934;80;21374;-80
2021/06/10 08:36:37;;;;;;;26.00;4.85;;;;;;;35.14;27.43;100103.56;1788014;79;21110;-75
2021/06/10 08:39:06;;;;;;;52.80;6.22;;;;;;;35.24;27.66;100107.69;1787802;79;20912;-77
2021/06/10 08:41:34;;;;;;;10.35;1.20;;;;;;;35.07;28.02;100101.05;1788093;80;20963;-79
2021/06/10 08:44:01;;;;;;;11.73;1.95;;;;;;;34.90;27.85;100103.72;1787826;78;20912;-78
2021/06/10 08:46:28;;;;;;;6.10;1.42;;;;;;;34.74;27.84;100099.56;1787803;79;21350;-78
2021/06/10 08:48:55;;;;;;;5.55;0.85;;;;;;;34.48;28.04;100091.76;1747787;80;21125;-79
2021/06/10 08:51:22;;;;;;;2.55;0.65;;;;;;;34.50;28.77;100089.59;1787782;80;20995;-80
2021/06/10 08:53:50;;;;;;;2.55;1.00;;;;;;;34.70;29.30;100082.65;1788194;79;20880;-77
2021/06/10 08:56:17;;;;;;;0.70;0.70;;;;;;;34.80;29.40;100093.05;1787804;79;20900;-80
2021/06/10 08:58:45;;;;;;;0.95;0.95;;;;;;;34.75;27.69;100082.14;1787802;79;21409;-79
2021/06/10 09:01:14;;;;;;;1.22;0.75;;;;;;;34.39;28.37;100083.81;1788094;79;21150;-80
2021/06/10 09:03:41;;;;;;;1.22;0.82;;;;;;;34.31;29.38;100081.06;1747906;80;20864;-76
2021/06/10 09:06:17;;;;;;;0.93;0.80;;;;;;;34.43;30.55;100082.21;1787809;79;20896;-78
2021/06/10 09:08:48;;;;;;;1.50;0.88;;;;;;;34.59;29.41;100086.64;1787407;79;20916;-78
2021/06/10 09:11:23;;;;;;;0.70;0.65;;;;;;;34.77;29.48;100081.86;1746785;82;20927;-78
2021/06/10 09:13:55;;;;;;;1.05;0.50;;;;;;;34.90;29.43;100080.55;1788075;80;21792;-77
2021/06/10 09:16:33;;;;;;;1.30;0.78;;;;;;;35.04;29.41;100078.44;1748118;81;20856;-80
2021/06/10 09:19:16;;;;;;;1.10;0.60;;;;;;;35.19;29.82;100074.13;1739858;82;21339;-79
2021/06/10 09:21:46;;;;;;;1.98;0.95;;;;;;;35.33;28.46;100076.62;1719614;82;21509;-78
2021/06/10 09:24:30;;;;;;;2.25;0.88;;;;;;;35.26;27.85;100063.25;1740138;82;20953;-80
2021/06/10 09:27:13;;;;;;;1.75;0.90;;;;;;;35.12;28.40;100062.12;1719532;82;21183;-78
2021/06/10 09:29:50;;;;;;;1.55;0.85;;;;;;;35.11;28.20;100052.80;1739759;82;21089;-79
2021/06/10 09:32:20;;;;;;;0.70;0.62;;;;;;;35.26;28.64;100050.98;1719411;82;20884;-78
2021/06/10 09:35:01;;;;;;;2.05;1.10;;;;;;;35.40;27.51;100045.01;1750863;81;21008;-77
2021/06/10 09:37:36;;;;;;;0.78;0.70;;;;;;;35.39;27.78;100035.98;1777031;80;21366;-78
2021/06/10 09:40:07;;;;;;;0.60;0.60;;;;;;;35.31;27.17;100043.87;1775876;80;21960;-78
2021/06/10 09:42:42;;;;;;;3.10;0.75;;;;;;;35.08;26.96;100050.08;1776871;80;20956;-78
2021/06/10 09:45:13;;;;;;;0.72;0.72;;;;;;;34.73;27.47;100052.14;1778878;80;20840;-81
2021/06/10 09:47:45;;;;;;;1.55;0.72;;;;;;;34.32;28.81;100045.93;1818572;79;21483;-78
2021/06/10 09:50:28;;;;;;;1.22;0.90;;;;;;;34.24;28.35;100040.45;1818741;79;20954;-78
2021/06/10 09:53:02;;;;;;;1.22;0.70;;;;;;;34.20;28.52;100043.42;1818595;79;21081;-75
2021/06/10 09:56:00;;;;;;;0.75;0.65;;;;;;;34.21;28.76;100044.23;1818669;78;20891;-78
2021/06/10 09:58:41;;;;;;;1.95;0.70;;;;;;;34.32;28.85;100039.67;1818577;78;20887;-78
2021/06/10 10:01:15;;;;;;;0.93;0.93;;;;;;;34.42;28.81;100038.38;1818837;79;20895;-78
2021/06/10 10:03:49;;;;;;;2.05;1.02;;;;;;;34.53;29.45;100033.78;1818517;79;21013;-77
2021/06/10 10:06:23;;;;;;;1.45;0.88;;;;;;;34.62;29.85;100035.77;1818683;79;21349;-75
2021/06/10 10:09:00;;;;;;;1.40;0.62;;;;;;;34.70;30.30;100030.89;1818467;79;20930;-77
2021/06/10 10:11:30;;;;;;;6.50;1.90;;;;;;;34.71;30.18;100033.36;1818539;79;20915;-76
2021/06/10 10:14:01;;;;;;;1.77;1.30;;;;;;;34.50;30.05;100032.95;1818623;79;20852;-77
2021/06/10 10:16:35;;;;;;;3.15;1.57;;;;;;;34.54;30.01;100032.70;1818772;77;20926;-77
2021/06/10 10:19:03;;;;;;;1.93;0.70;;;;;;;34.45;30.08;100035.93;1818660;77;21562;-77
2021/06/10 10:21:35;;;;;;;1.30;0.70;;;;;;;34.45;28.93;100038.65;1818379;79;20946;-75
2021/06/10 10:24:06;;;;;;;0.87;0.67;;;;;;;34.47;28.07;100025.59;1818965;77;20954;-78
2021/06/10 10:26:33;;;;;;;3.12;1.15;;;;;;;34.42;28.84;100020.13;1818666;79;21554;-77
2021/06/10 10:29:00;;;;;;;0.90;0.90;;;;;;;34.49;29.61;100025.89;1818566;79;20906;-76
2021/06/10 10:31:29;;;;;;;1.12;0.93;;;;;;;34.68;28.60;100020.25;1818421;79;21551;-76
2021/06/10 10:33:56;;;;;;;1.72;0.60;;;;;;;34.86;30.26;100021.67;1818355;79;20887;-77
2021/06/10 10:36:31;;;;;;;0.95;0.70;;;;;;;34.98;29.85;100026.35;1818233;77;20879;-77
2021/06/10 10:39:05;;;;;;;1.82;0.88;;;;;;;35.17;28.99;100019.87;1818428;79;20859;-76
2021/06/10 10:41:32;;;;;;;5.03;1.02;;;;;;;35.35;28.38;100017.71;1818743;79;21005;-76
2021/06/10 10:44:22;;;;;;;0.80;0.80;;;;;;;35.49;28.17;100018.83;1818499;79;21768;-78
2021/06/10 10:47:09;;;;;;;1.12;1.00;;;;;;;35.62;27.99;100016.08;1818465;77;21029;-77
2021/06/10 10:49:49;;;;;;;1.42;0.88;;;;;;;35.63;27.61;100022.66;1818474;79;20903;-76
2021/06/10 10:52:23;;;;;;;3.30;1.20;;;;;;;35.65;27.96;100016.39;1818580;77;20946;-77
2021/06/10 10:54:51;;;;;;;3.22;0.98;;;;;;;35.65;28.76;100016.39;1818602;79;21365;-76
2021/06/10 10:57:42;;;;;;;2.12;0.82;;;;;;;35.51;28.88;100013.92;1818636;79;21103;-77
2021/06/10 11:00:13;;;;;;;0.98;0.80;;;;;;;35.51;28.79;100011.19;1818593;77;21389;-76
2021/06/10 11:02:54;;;;;;;2.10;0.70;;;;;;;35.38;27.51;100012.55;1818723;77;20950;-76
2021/06/10 11:05:28;;;;;;;1.98;0.75;;;;;;;35.18;27.65;100005.16;1799205;79;20938;-76
2021/06/10 11:07:56;;;;;;;0.95;0.68;;;;;;;35.02;29.12;100000.75;1818811;79;21045;-78
2021/06/10 11:10:53;;;;;;;2.65;1.05;;;;;;;34.95;28.60;99996.92;1818560;77;21107;-78
2021/06/10 11:13:24;;;;;;;1.22;0.98;;;;;;;34.66;28.56;99997.91;1818650;79;20882;-77
2021/06/10 11:16:00;;;;;;;4.80;1.55;;;;;;;34.38;29.58;100000.51;1818460;77;21403;-77
2021/06/10 11:18:51;;;;;;;2.10;1.27;;;;;;;34.10;30.23;100001.13;1829899;78;21375;-76
2021/06/10 11:21:44;;;;;;;1.85;1.40;;;;;;;33.84;30.19;100001.53;1836101;78;20924;-76
2021/06/10 11:24:21;;;;;;;2.52;1.60;;;;;;;33.61;31.03;99996.72;1836100;78;21144;-76
2021/06/10 11:27:01;;;;;;;3.20;1.70;;;;;;;33.52;30.85;99994.72;1835994;78;20874;-76
2021/06/10 11:29:30;;;;;;;1.75;1.17;;;;;;;33.37;30.99;99996.24;1836146;78;21391;-76
2021/06/10 11:32:23;;;;;;;2.50;1.17;;;;;;;33.06;31.73;99996.46;1836279;78;20998;-77